createdAt,value
2023-08-17T00:00:04.771Z,100666.38
2023-08-17T00:01:08.590Z,100666.63
2023-08-17T00:02:11.684Z,100661.16
2023-08-17T00:03:14.981Z,100661.41
2023-08-17T00:04:18.327Z,100660.56
2023-08-17T00:05:21.432Z,100658.91
2023-08-17T00:06:24.342Z,100662.25
2023-08-17T00:07:27.331Z,100663.31
2023-08-17T00:08:30.496Z,100664.13
2023-08-17T00:09:33.954Z,100660.56
2023-08-17T00:10:37.039Z,100665.19
2023-08-17T00:11:40.190Z,100664.38
2023-08-17T00:12:43.117Z,100661.41
2023-08-17T00:13:45.958Z,100661.41
2023-08-17T00:14:49.145Z,100664.38
2023-08-17T00:15:52.015Z,100653.44
2023-08-17T00:16:54.893Z,100658.91
2023-08-17T00:17:57.950Z,100656.16
2023-08-17T00:19:00.877Z,100660.56
2023-08-17T00:20:06.831Z,100657.00
2023-08-17T00:21:09.862Z,100648.81
2023-08-17T00:22:12.906Z,100656.16
2023-08-17T00:23:15.900Z,100647.97
2023-08-17T00:24:18.847Z,100657.84
2023-08-17T00:25:21.757Z,100646.31
2023-08-17T00:26:24.639Z,100642.75
2023-08-17T00:27:27.873Z,100644.66
2023-08-17T00:28:30.862Z,100644.66
2023-08-17T00:29:34.108Z,100636.72
2023-08-17T00:30:40.233Z,100646.78
2023-08-17T00:31:43.497Z,100646.78
2023-08-17T00:32:46.451Z,100644.28
2023-08-17T00:33:49.455Z,100641.34
2023-08-17T00:34:52.680Z,100644.41
2023-08-17T00:35:55.663Z,100646.31
2023-08-17T00:36:58.712Z,100643.81
2023-08-17T00:38:01.812Z,100642.16
2023-08-17T00:39:05.294Z,100643.00
2023-08-17T00:40:08.957Z,100643.81
2023-08-17T00:41:11.923Z,100638.81
2023-08-17T00:42:14.803Z,100641.78
2023-08-17T00:43:18.840Z,100638.47
2023-08-17T00:44:21.781Z,100639.53
2023-08-17T00:45:25.256Z,100642.50
2023-08-17T00:46:29.229Z,100635.34
2023-08-17T00:47:33.021Z,100637.25
2023-08-17T00:48:35.879Z,100637.25
2023-08-17T00:49:38.881Z,100633.47
2023-08-17T00:50:41.965Z,100629.69
2023-08-17T00:51:44.814Z,100632.41
2023-08-17T00:52:47.906Z,100626.34
2023-08-17T00:53:54.968Z,100627.16
2023-08-17T00:54:58.673Z,100622.31
2023-08-17T00:56:02.578Z,100628.00
2023-08-17T00:57:08.284Z,100621.72
2023-08-17T00:58:11.243Z,100615.41
2023-08-17T00:59:14.280Z,100616.25
2023-08-17T01:00:19.777Z,100617.09
2023-08-17T01:01:23.274Z,100606.16
2023-08-17T01:02:26.645Z,100611.63
2023-08-17T01:03:31.013Z,100609.97
2023-08-17T01:04:34.091Z,100607.47
2023-08-17T01:05:37.989Z,100609.38
2023-08-17T01:06:40.928Z,100608.31
2023-08-17T01:07:43.788Z,100611.03
2023-08-17T01:08:46.778Z,100602.84
2023-08-17T01:09:49.705Z,100603.91
2023-08-17T01:11:27.333Z,100611.03
2023-08-17T01:12:35.157Z,100612.09
2023-08-17T01:13:49.498Z,100612.94
2023-08-17T01:15:11.054Z,100609.97
2023-08-17T01:16:16.245Z,100611.41
2023-08-17T01:17:28.639Z,100610.56
2023-08-17T01:18:33.163Z,100604.28
2023-08-17T01:19:38.956Z,100605.09
2023-08-17T01:20:41.791Z,100607.84
2023-08-17T01:21:49.214Z,100597.97
2023-08-17T01:22:53.470Z,100606.16
2023-08-17T01:24:00.691Z,100594.41
2023-08-17T01:25:03.999Z,100599.66
2023-08-17T01:26:06.960Z,100603.81
2023-08-17T01:27:09.939Z,100608.66
2023-08-17T01:28:13.238Z,100606.16
2023-08-17T01:29:16.437Z,100602.84
2023-08-17T01:30:19.860Z,100600.34
2023-08-17T01:31:26.014Z,100602.84
2023-08-17T01:32:32.245Z,100601.19
2023-08-17T01:33:56.612Z,100601.19
2023-08-17T01:35:03.583Z,100590.25
2023-08-17T01:36:15.039Z,100588.59
2023-08-17T01:37:19.804Z,100593.22
2023-08-17T01:38:24.220Z,100587.75
2023-08-17T01:39:33.097Z,100582.31
2023-08-17T01:40:36.373Z,100577.69
2023-08-17T01:41:40.018Z,100583.38
2023-08-17T01:42:44.139Z,100574.81
2023-08-17T01:43:48.730Z,100581.94
2023-08-17T01:44:52.174Z,100591.19
2023-08-17T01:45:55.108Z,100586.81
2023-08-17T01:46:58.261Z,100589.53
2023-08-17T01:48:01.300Z,100586.19
2023-08-17T01:49:04.308Z,100585.38
2023-08-17T01:50:07.494Z,100594.63
2023-08-17T01:51:13.117Z,100589.41
2023-08-17T01:52:16.089Z,100589.19
2023-08-17T01:53:18.950Z,100582.88
2023-08-17T01:54:22.063Z,100584.16
2023-08-17T01:55:26.034Z,100587.16
2023-08-17T01:56:28.851Z,100581.69
2023-08-17T01:57:31.842Z,100587.16
2023-08-17T01:58:34.857Z,100583.34
2023-08-17T01:59:37.951Z,100580.03
2023-08-17T02:00:41.171Z,100580.03
2023-08-17T02:01:44.075Z,100575.03
2023-08-17T02:02:47.068Z,100578.00
2023-08-17T02:03:50.108Z,100579.66
2023-08-17T02:04:53.021Z,100567.88
2023-08-17T02:05:57.236Z,100575.63
2023-08-17T02:07:00.187Z,100573.13
2023-08-17T02:08:03.115Z,100572.91
2023-08-17T02:09:06.174Z,100569.56
2023-08-17T02:10:09.501Z,100560.31
2023-08-17T02:11:12.534Z,100563.66
2023-08-17T02:12:15.520Z,100562.59
2023-08-17T02:13:20.525Z,100560.94
2023-08-17T02:14:23.409Z,100563.66
2023-08-17T02:15:26.603Z,100558.19
2023-08-17T02:16:29.645Z,100561.97
2023-08-17T02:17:32.529Z,100557.13
2023-08-17T02:18:36.497Z,100560.66
2023-08-17T02:19:39.884Z,100568.84
2023-08-17T02:20:42.816Z,100564.50
2023-08-17T02:21:48.119Z,100573.75
2023-08-17T02:22:51.105Z,100566.38
2023-08-17T02:23:53.943Z,100582.50
2023-08-17T02:24:59.992Z,100565.31
2023-08-17T02:26:03.004Z,100566.97
2023-08-17T02:27:08.756Z,100564.50
2023-08-17T02:28:11.776Z,100569.13
2023-08-17T02:29:14.756Z,100558.19
2023-08-17T02:30:17.669Z,100575.41
2023-08-17T02:31:20.562Z,100562.59
2023-08-17T02:32:23.619Z,100561.50
2023-08-17T02:33:26.466Z,100558.19
2023-08-17T02:34:29.364Z,100564.50
2023-08-17T02:35:32.451Z,100556.53
2023-08-17T02:36:36.405Z,100558.19
2023-08-17T02:37:39.516Z,100558.41
2023-08-17T02:38:42.639Z,100554.84
2023-08-17T02:39:45.643Z,100559.25
2023-08-17T02:40:50.888Z,100551.69
2023-08-17T02:41:53.919Z,100554.41
2023-08-17T02:42:56.801Z,100554.41
2023-08-17T02:43:59.884Z,100550.84
2023-08-17T02:45:02.862Z,100551.06
2023-08-17T02:46:08.874Z,100552.13
2023-08-17T02:47:13.762Z,100551.06
2023-08-17T02:48:16.787Z,100558.66
2023-08-17T02:49:20.292Z,100565.16
2023-08-17T02:50:23.215Z,100558.66
2023-08-17T02:51:26.253Z,100556.97
2023-08-17T02:52:29.164Z,100570.63
2023-08-17T02:53:32.077Z,100570.88
2023-08-17T02:54:35.266Z,100566.25
2023-08-17T02:55:38.222Z,100560.78
2023-08-17T02:56:41.128Z,100560.53
2023-08-17T02:57:44.130Z,100567.88
2023-08-17T02:58:47.122Z,100567.88
2023-08-17T02:59:50.016Z,100578.00
2023-08-17T03:00:53.733Z,100564.59
2023-08-17T03:03:00.804Z,100565.88
2023-08-17T03:04:04.011Z,100560.66
2023-08-17T03:05:07.188Z,100561.25
2023-08-17T03:06:10.191Z,100549.50
2023-08-17T03:07:16.189Z,100558.50
2023-08-17T03:08:19.185Z,100553.91
2023-08-17T03:09:22.094Z,100552.00
2023-08-17T03:10:26.679Z,100549.28
2023-08-17T03:11:29.647Z,100549.50
2023-08-17T03:12:32.651Z,100544.88
2023-08-17T03:13:35.708Z,100538.34
2023-08-17T03:14:38.578Z,100545.72
2023-08-17T03:15:41.684Z,100542.97
2023-08-17T03:16:45.525Z,100539.41
2023-08-17T03:17:48.548Z,100532.28
2023-08-17T03:18:51.534Z,100538.59
2023-08-17T03:19:54.852Z,100531.44
2023-08-17T03:20:58.084Z,100533.38
2023-08-17T03:22:01.626Z,100529.81
2023-08-17T03:23:07.938Z,100521.38
2023-08-17T03:24:11.609Z,100519.13
2023-08-17T03:25:14.771Z,100528.97
2023-08-17T03:26:19.124Z,100528.97
2023-08-17T03:27:22.092Z,100524.81
2023-08-17T03:28:26.260Z,100526.97
2023-08-17T03:29:29.551Z,100525.28
2023-08-17T03:30:32.761Z,100524.91
2023-08-17T03:31:35.748Z,100524.91
2023-08-17T03:32:38.979Z,100525.75
2023-08-17T03:33:42.316Z,100525.75
2023-08-17T03:34:45.525Z,100526.00
2023-08-17T03:35:48.943Z,100525.16
2023-08-17T03:36:52.059Z,100521.00
2023-08-17T03:37:54.929Z,100522.88
2023-08-17T03:38:57.958Z,100534.63
2023-08-17T03:40:02.274Z,100528.13
2023-08-17T03:41:07.968Z,100528.13
2023-08-17T03:42:11.384Z,100524.56
2023-08-17T03:43:14.248Z,100519.31
2023-08-17T03:44:17.671Z,100524.56
2023-08-17T03:45:20.685Z,100528.13
2023-08-17T03:46:26.013Z,100536.06
2023-08-17T03:47:29.231Z,100523.72
2023-08-17T03:48:32.439Z,100527.28
2023-08-17T03:49:35.395Z,100536.31
2023-08-17T03:50:38.352Z,100525.38
2023-08-17T03:51:41.947Z,100530.00
2023-08-17T03:52:44.939Z,100536.31
2023-08-17T03:53:47.922Z,100535.25
2023-08-17T03:54:51.264Z,100533.56
2023-08-17T03:55:54.348Z,100527.06
2023-08-17T03:56:57.320Z,100531.69
2023-08-17T03:58:00.290Z,100533.34
2023-08-17T03:59:03.224Z,100531.47
2023-08-17T04:00:07.781Z,100539.63
2023-08-17T04:01:21.835Z,100526.22
2023-08-17T04:02:24.869Z,100536.31
2023-08-17T04:03:27.761Z,100527.06
2023-08-17T04:04:30.895Z,100533.34
2023-08-17T04:05:34.604Z,100526.00
2023-08-17T04:06:37.962Z,100528.72
2023-08-17T04:07:40.924Z,100520.78
2023-08-17T04:08:43.941Z,100523.28
2023-08-17T04:09:47.416Z,100527.06
2023-08-17T04:10:50.385Z,100527.91
2023-08-17T04:11:53.280Z,100522.19
2023-08-17T04:12:56.151Z,100532.03
2023-08-17T04:13:59.070Z,100527.63
2023-08-17T04:15:02.113Z,100528.25
2023-08-17T04:16:05.586Z,100525.75
2023-08-17T04:17:08.851Z,100529.56
2023-08-17T04:18:11.928Z,100526.22
2023-08-17T04:19:15.500Z,100529.78
2023-08-17T04:20:20.264Z,100525.38
2023-08-17T04:21:23.431Z,100524.56
2023-08-17T04:22:26.541Z,100523.50
2023-08-17T04:24:32.728Z,100522.06
2023-08-17T04:25:36.390Z,100525.88
2023-08-17T04:26:40.339Z,100520.41
2023-08-17T04:27:43.470Z,100520.41
2023-08-17T04:28:46.500Z,100519.59
2023-08-17T04:29:50.741Z,100528.00
2023-08-17T04:30:53.804Z,100529.06
2023-08-17T04:31:57.021Z,100518.38
2023-08-17T04:33:00.273Z,100530.09
2023-08-17T04:34:03.319Z,100530.09
2023-08-17T04:35:07.265Z,100530.09
2023-08-17T04:36:10.515Z,100529.06
2023-08-17T04:37:14.267Z,100530.72
2023-08-17T04:38:17.440Z,100535.13
2023-08-17T04:39:21.501Z,100528.00
2023-08-17T04:40:24.378Z,100533.44
2023-08-17T04:41:27.566Z,100531.31
2023-08-17T04:42:31.360Z,100535.13
2023-08-17T04:43:34.276Z,100536.78
2023-08-17T04:44:37.213Z,100534.84
2023-08-17T04:45:40.340Z,100534.63
2023-08-17T04:46:43.396Z,100529.19
2023-08-17T04:47:46.327Z,100521.00
2023-08-17T04:48:51.454Z,100523.72
2023-08-17T04:49:54.436Z,100523.72
2023-08-17T04:50:57.372Z,100539.25
2023-08-17T04:52:01.331Z,100534.63
2023-08-17T04:53:04.460Z,100540.09
2023-08-17T04:54:07.439Z,100534.63
2023-08-17T04:55:10.913Z,100532.13
2023-08-17T04:56:13.869Z,100527.28
2023-08-17T04:57:16.915Z,100541.75
2023-08-17T04:58:19.948Z,100536.53
2023-08-17T04:59:23.545Z,100535.69
2023-08-17T05:00:29.566Z,100538.69
2023-08-17T05:01:33.878Z,100540.56
2023-08-17T05:02:38.219Z,100540.56
2023-08-17T05:03:42.247Z,100538.06
2023-08-17T05:04:45.463Z,100542.69
2023-08-17T05:05:48.353Z,100548.16
2023-08-17T05:06:51.335Z,100545.41
2023-08-17T05:07:54.688Z,100545.41
2023-08-17T05:08:59.310Z,100546.03
2023-08-17T05:10:02.497Z,100548.97
2023-08-17T05:11:07.206Z,100553.59
2023-08-17T05:12:10.163Z,100551.47
2023-08-17T05:13:13.697Z,100556.09
2023-08-17T05:14:17.134Z,100557.16
2023-08-17T05:15:20.661Z,100557.38
2023-08-17T05:16:24.119Z,100563.91
2023-08-17T05:17:27.648Z,100557.66
2023-08-17T05:18:32.433Z,100557.66
2023-08-17T05:19:35.327Z,100554.06
2023-08-17T05:20:38.833Z,100561.44
2023-08-17T05:21:41.819Z,100556.81
2023-08-17T05:22:45.301Z,100553.47
2023-08-17T05:23:48.356Z,100555.34
2023-08-17T05:24:51.340Z,100561.66
2023-08-17T05:25:55.620Z,100564.38
2023-08-17T05:26:59.317Z,100564.56
2023-08-17T05:28:02.591Z,100570.84
2023-08-17T05:29:05.729Z,100564.56
2023-08-17T05:30:09.566Z,100570.28
2023-08-17T05:31:12.543Z,100566.47
2023-08-17T05:32:18.935Z,100569.19
2023-08-17T05:33:22.554Z,100570.28
2023-08-17T05:34:25.903Z,100565.63
2023-08-17T05:35:29.047Z,100565.88
2023-08-17T05:36:32.142Z,100569.66
2023-08-17T05:37:34.996Z,100568.59
2023-08-17T05:38:38.047Z,100571.56
2023-08-17T05:39:42.437Z,100565.50
2023-08-17T05:40:45.462Z,100574.50
2023-08-17T05:41:48.341Z,100568.22
2023-08-17T05:42:51.644Z,100570.13
2023-08-17T05:43:54.638Z,100574.75
2023-08-17T05:44:57.654Z,100571.19
2023-08-17T05:46:01.039Z,100561.34
2023-08-17T05:47:03.964Z,100569.53
2023-08-17T05:48:08.309Z,100560.50
2023-08-17T05:49:11.309Z,100559.69
2023-08-17T05:50:14.206Z,100562.41
2023-08-17T05:51:17.086Z,100559.69
2023-08-17T05:52:20.185Z,100559.91
2023-08-17T05:53:23.177Z,100570.59
2023-08-17T05:54:26.113Z,100577.72
2023-08-17T05:55:29.041Z,100571.41
2023-08-17T05:56:31.965Z,100573.94
2023-08-17T05:57:35.525Z,100575.56
2023-08-17T05:58:38.430Z,100579.13
2023-08-17T05:59:41.236Z,100576.19
2023-08-17T06:00:44.248Z,100574.50
2023-08-17T06:01:47.305Z,100571.78
2023-08-17T06:02:53.183Z,100572.63
2023-08-17T06:03:56.227Z,100569.88
2023-08-17T06:04:59.311Z,100569.66
2023-08-17T06:06:02.322Z,100567.16
2023-08-17T06:07:05.418Z,100569.06
2023-08-17T06:08:08.481Z,100566.31
2023-08-17T06:09:11.399Z,100570.94
2023-08-17T06:10:14.266Z,100570.13
2023-08-17T06:11:17.209Z,100566.31
2023-08-17T06:12:20.602Z,100571.78
2023-08-17T06:13:23.610Z,100573.44
2023-08-17T06:14:26.574Z,100576.78
2023-08-17T06:15:29.423Z,100578.47
2023-08-17T06:16:32.542Z,100578.84
2023-08-17T06:17:35.624Z,100574.81
2023-08-17T06:18:38.666Z,100576.47
2023-08-17T06:19:41.515Z,100574.81
2023-08-17T06:20:44.571Z,100575.41
2023-08-17T06:21:47.440Z,100568.91
2023-08-17T06:22:51.453Z,100571.63
2023-08-17T06:23:54.651Z,100568.91
2023-08-17T06:24:57.643Z,100568.22
2023-08-17T06:26:00.741Z,100571.78
2023-08-17T06:27:03.793Z,100572.38
2023-08-17T06:28:07.691Z,100573.56
2023-08-17T06:29:10.718Z,100581.28
2023-08-17T06:30:14.323Z,100574.97
2023-08-17T06:31:17.375Z,100572.66
2023-08-17T06:32:21.218Z,100578.94
2023-08-17T06:33:24.379Z,100579.78
2023-08-17T06:34:27.259Z,100579.28
2023-08-17T06:35:30.093Z,100588.09
2023-08-17T06:36:33.969Z,100585.09
2023-08-17T06:37:37.049Z,100583.81
2023-08-17T06:38:39.912Z,100587.97
2023-08-17T06:39:42.953Z,100583.09
2023-08-17T06:40:47.169Z,100592.13
2023-08-17T06:41:50.098Z,100590.00
2023-08-17T06:42:53.883Z,100585.75
2023-08-17T06:43:56.831Z,100583.59
2023-08-17T06:44:59.838Z,100584.19
2023-08-17T06:46:03.489Z,100585.63
2023-08-17T06:47:06.425Z,100583.25
2023-08-17T06:48:09.389Z,100593.13
2023-08-17T06:49:14.052Z,100588.84
2023-08-17T06:50:17.086Z,100588.41
2023-08-17T06:51:20.046Z,100590.03
2023-08-17T06:52:23.027Z,100587.06
2023-08-17T06:53:25.907Z,100590.41
2023-08-17T06:54:28.853Z,100589.94
2023-08-17T06:55:31.977Z,100596.13
2023-08-17T06:56:34.997Z,100598.13
2023-08-17T06:57:38.072Z,100593.44
2023-08-17T06:58:41.044Z,100588.09
2023-08-17T06:59:47.577Z,100594.72
2023-08-17T07:00:50.518Z,100594.25
2023-08-17T07:01:53.489Z,100593.53
2023-08-17T07:02:58.640Z,100591.16
2023-08-17T07:04:03.806Z,100589.16
2023-08-17T07:05:07.298Z,100588.66
2023-08-17T07:06:10.949Z,100593.06
2023-08-17T07:07:15.707Z,100594.00
2023-08-17T07:08:18.625Z,100588.63
2023-08-17T07:09:22.527Z,100593.97
2023-08-17T07:10:25.489Z,100596.22
2023-08-17T07:11:28.560Z,100590.28
2023-08-17T07:12:31.373Z,100593.97
2023-08-17T07:13:34.581Z,100592.63
2023-08-17T07:14:38.463Z,100593.81
2023-08-17T07:15:41.463Z,100596.69
2023-08-17T07:16:44.532Z,100595.97
2023-08-17T07:17:47.591Z,100599.03
2023-08-17T07:18:50.547Z,100600.72
2023-08-17T07:20:14.974Z,100594.75
2023-08-17T07:21:16.513Z,100595.00
2023-08-17T07:22:19.634Z,100593.06
2023-08-17T07:23:22.589Z,100595.13
2023-08-17T07:24:25.599Z,100591.63
2023-08-17T07:25:28.490Z,100592.53
2023-08-17T07:26:31.474Z,100596.53
2023-08-17T07:27:34.624Z,100592.06
2023-08-17T07:28:37.561Z,100589.75
2023-08-17T07:29:40.471Z,100583.28
2023-08-17T07:30:43.457Z,100579.00
2023-08-17T07:31:46.551Z,100584.00
2023-08-17T07:32:49.548Z,100584.00
2023-08-17T07:33:52.515Z,100587.78
2023-08-17T07:34:55.394Z,100586.13
2023-08-17T07:35:59.794Z,100588.06
2023-08-17T07:37:02.835Z,100579.34
2023-08-17T07:38:09.264Z,100587.16
2023-08-17T07:39:12.762Z,100585.31
2023-08-17T07:40:15.829Z,100586.00
2023-08-17T07:41:18.728Z,100581.19
2023-08-17T07:42:21.626Z,100577.03
2023-08-17T07:43:25.211Z,100588.13
2023-08-17T07:44:29.898Z,100583.91
2023-08-17T07:45:32.741Z,100592.03
2023-08-17T07:46:35.706Z,100588.13
2023-08-17T07:47:38.677Z,100585.09
2023-08-17T07:48:42.246Z,100599.44
2023-08-17T07:49:47.042Z,100593.81
2023-08-17T07:50:51.889Z,100591.91
2023-08-17T07:51:55.000Z,100588.69
2023-08-17T07:52:57.926Z,100585.66
2023-08-17T07:54:02.004Z,100586.19
2023-08-17T07:55:05.300Z,100592.03
2023-08-17T07:56:08.371Z,100588.66
2023-08-17T07:57:11.265Z,100589.19
2023-08-17T07:58:14.153Z,100584.47
2023-08-17T07:59:17.184Z,100594.53
2023-08-17T08:00:20.205Z,100586.47
2023-08-17T08:01:23.096Z,100593.81
2023-08-17T08:02:26.209Z,100588.47
2023-08-17T08:03:29.159Z,100590.66
2023-08-17T08:04:32.305Z,100592.00
2023-08-17T08:05:35.294Z,100602.69
2023-08-17T08:06:38.301Z,100598.25
2023-08-17T08:07:41.287Z,100600.38
2023-08-17T08:08:44.446Z,100608.28
2023-08-17T08:09:47.423Z,100610.13
2023-08-17T08:10:50.261Z,100605.06
2023-08-17T08:11:53.376Z,100605.72
2023-08-17T08:12:57.152Z,100603.13
2023-08-17T08:14:00.239Z,100600.34
2023-08-17T08:15:03.423Z,100598.69
2023-08-17T08:16:07.656Z,100600.53
2023-08-17T08:17:10.767Z,100601.19
2023-08-17T08:18:13.832Z,100588.75
2023-08-17T08:19:16.780Z,100588.59
2023-08-17T08:20:19.723Z,100595.53
2023-08-17T08:21:22.746Z,100598.84
2023-08-17T08:22:25.664Z,100587.88
2023-08-17T08:23:28.902Z,100590.84
2023-08-17T08:24:38.276Z,100586.13
2023-08-17T08:25:43.286Z,100589.44
2023-08-17T08:26:46.139Z,100582.50
2023-08-17T08:27:49.098Z,100580.56
2023-08-17T08:28:52.063Z,100578.97
2023-08-17T08:29:55.005Z,100573.22
2023-08-17T08:31:03.253Z,100575.69
2023-08-17T08:32:06.203Z,100574.78
2023-08-17T08:33:09.207Z,100576.94
2023-08-17T08:34:12.216Z,100577.88
2023-08-17T08:35:15.050Z,100574.56
2023-08-17T08:36:17.970Z,100571.16
2023-08-17T08:37:20.916Z,100572.84
2023-08-17T08:38:23.822Z,100566.44
2023-08-17T08:39:29.698Z,100565.91
2023-08-17T08:40:33.465Z,100565.41
2023-08-17T08:41:36.839Z,100571.91
2023-08-17T08:42:39.911Z,100580.38
2023-08-17T08:43:43.103Z,100580.00
2023-08-17T08:44:46.913Z,100573.22
2023-08-17T08:45:50.999Z,100574.53
2023-08-17T08:46:54.732Z,100577.47
2023-08-17T08:47:58.333Z,100575.97
2023-08-17T08:49:01.338Z,100572.38
2023-08-17T08:50:05.370Z,100565.31
2023-08-17T08:51:10.792Z,100569.72
2023-08-17T08:52:16.503Z,100568.25
2023-08-17T08:53:19.748Z,100569.31
2023-08-17T08:54:26.221Z,100569.22
2023-08-17T08:55:31.091Z,100571.03
2023-08-17T08:56:34.767Z,100572.75
2023-08-17T08:57:37.983Z,100578.75
2023-08-17T08:58:40.842Z,100569.94
2023-08-17T08:59:47.496Z,100564.16
2023-08-17T09:00:50.560Z,100566.97
2023-08-17T09:01:53.689Z,100561.84
2023-08-17T09:02:56.946Z,100563.28
2023-08-17T09:04:02.828Z,100567.88
2023-08-17T09:05:07.953Z,100561.06
2023-08-17T09:06:11.326Z,100565.00
2023-08-17T09:07:15.624Z,100558.94
2023-08-17T09:08:29.147Z,100564.84
2023-08-17T09:09:32.239Z,100569.69
2023-08-17T09:10:38.864Z,100567.50
2023-08-17T09:11:44.873Z,100563.03
2023-08-17T09:12:50.146Z,100567.72
2023-08-17T09:13:54.186Z,100564.28
2023-08-17T09:14:57.567Z,100561.72
2023-08-17T09:16:07.508Z,100565.25
2023-08-17T09:17:11.245Z,100562.56
2023-08-17T09:18:14.361Z,100558.94
2023-08-17T09:19:17.498Z,100563.38
2023-08-17T09:21:59.485Z,100570.75
2023-08-17T09:23:04.272Z,100560.06
2023-08-17T09:24:08.872Z,100565.63
2023-08-17T09:25:12.055Z,100566.09
2023-08-17T09:26:15.061Z,100567.34
2023-08-17T09:27:18.285Z,100572.28
2023-08-17T09:28:21.952Z,100571.31
2023-08-17T09:29:24.933Z,100568.69
2023-08-17T09:30:27.877Z,100570.69
2023-08-17T09:31:33.461Z,100574.75
2023-08-17T09:32:36.549Z,100579.06
2023-08-17T09:34:49.059Z,100586.97
2023-08-17T09:35:58.543Z,100581.91
2023-08-17T09:37:07.416Z,100582.38
2023-08-17T09:38:10.431Z,100584.47
2023-08-17T09:39:14.960Z,100585.56
2023-08-17T09:40:22.266Z,100581.66
2023-08-17T09:41:27.750Z,100590.97
2023-08-17T09:42:32.760Z,100583.34
2023-08-17T09:43:35.784Z,100589.00
2023-08-17T09:44:40.450Z,100587.34
2023-08-17T09:45:46.138Z,100586.97
2023-08-17T09:46:49.451Z,100584.22
2023-08-17T09:47:52.612Z,100581.09
2023-08-17T09:48:55.611Z,100575.81
2023-08-17T09:49:58.590Z,100577.59
2023-08-17T09:51:03.836Z,100583.00
2023-08-17T09:52:06.878Z,100572.84
2023-08-17T09:53:13.076Z,100573.09
2023-08-17T09:54:25.641Z,100575.44
2023-08-17T09:55:28.701Z,100572.06
2023-08-17T09:56:31.616Z,100566.16
2023-08-17T09:57:35.127Z,100569.06
2023-08-17T09:58:40.902Z,100569.78
2023-08-17T09:59:43.917Z,100577.03
2023-08-17T10:00:51.846Z,100584.69
2023-08-17T10:01:57.297Z,100573.22
2023-08-17T10:03:00.690Z,100578.22
2023-08-17T10:04:03.845Z,100579.91
2023-08-17T10:05:07.413Z,100581.69
2023-08-17T10:06:11.636Z,100582.13
2023-08-17T10:07:14.801Z,100581.69
2023-08-17T10:08:20.640Z,100585.03
2023-08-17T10:09:28.760Z,100598.84
2023-08-17T10:10:32.431Z,100590.88
2023-08-17T10:11:35.468Z,100590.88
2023-08-17T10:12:39.717Z,100592.88
2023-08-17T10:13:50.151Z,100582.97
2023-08-17T10:15:10.035Z,100588.53
2023-08-17T10:16:30.078Z,100584.53
2023-08-17T10:17:56.027Z,100584.31
2023-08-17T10:19:09.513Z,100592.91
2023-08-17T10:20:12.617Z,100597.63
2023-08-17T10:21:19.794Z,100591.16
2023-08-17T10:22:44.693Z,100596.09
2023-08-17T10:23:48.921Z,100592.75
2023-08-17T10:24:51.788Z,100595.03
2023-08-17T10:25:55.239Z,100598.53
2023-08-17T10:26:58.104Z,100593.19
2023-08-17T10:28:05.220Z,100600.16
2023-08-17T10:29:15.330Z,100591.84
2023-08-17T10:30:20.052Z,100590.19
2023-08-17T10:31:23.098Z,100594.28
2023-08-17T10:32:26.297Z,100592.31
2023-08-17T10:33:29.679Z,100590.81
2023-08-17T10:34:32.617Z,100596.09
2023-08-17T10:35:35.619Z,100594.53
2023-08-17T10:36:38.463Z,100594.66
2023-08-17T10:37:41.317Z,100595.53
2023-08-17T10:38:44.401Z,100585.41
2023-08-17T10:39:48.312Z,100587.47
2023-08-17T10:41:17.802Z,100593.09
2023-08-17T10:42:37.813Z,100600.28
2023-08-17T10:43:56.436Z,100592.44
2023-08-17T10:44:59.392Z,100595.00
2023-08-17T10:46:17.886Z,100591.91
2023-08-17T10:47:21.967Z,100592.59
2023-08-17T10:48:29.193Z,100596.06
2023-08-17T10:49:32.614Z,100596.09
2023-08-17T10:50:42.726Z,100603.03
2023-08-17T10:52:03.754Z,100594.53
2023-08-17T10:53:10.361Z,100600.41
2023-08-17T10:54:13.413Z,100602.13
2023-08-17T10:55:16.553Z,100600.66
2023-08-17T10:56:19.537Z,100610.38
2023-08-17T10:57:34.428Z,100606.44
2023-08-17T10:58:38.974Z,100608.22
2023-08-17T10:59:44.935Z,100609.63
2023-08-17T11:00:48.120Z,100605.63
2023-08-17T11:01:51.138Z,100605.97
2023-08-17T11:02:58.285Z,100603.25
2023-08-17T11:04:19.779Z,100609.88
2023-08-17T11:05:44.990Z,100609.00
2023-08-17T11:06:48.073Z,100605.84
2023-08-17T11:07:51.164Z,100615.53
2023-08-17T11:08:59.276Z,100597.75
2023-08-17T11:10:03.515Z,100611.00
2023-08-17T11:11:07.705Z,100609.88
2023-08-17T11:12:27.427Z,100605.47
2023-08-17T11:13:32.470Z,100612.53
2023-08-17T11:14:36.131Z,100617.00
2023-08-17T11:15:44.529Z,100618.13
2023-08-17T11:16:48.782Z,100607.41
2023-08-17T11:17:51.885Z,100612.78
2023-08-17T11:18:57.361Z,100608.41
2023-08-17T11:20:00.573Z,100614.44
2023-08-17T11:21:09.965Z,100612.06
2023-08-17T11:22:13.209Z,100601.66
2023-08-17T11:23:16.076Z,100612.50
2023-08-17T11:24:19.493Z,100612.19
2023-08-17T11:25:22.928Z,100608.94
2023-08-17T11:26:25.960Z,100608.69
2023-08-17T11:27:32.256Z,100603.38
2023-08-17T11:28:42.819Z,100592.84
2023-08-17T11:29:46.659Z,100592.13
2023-08-17T11:31:00.229Z,100600.59
2023-08-17T11:32:03.337Z,100593.44
2023-08-17T11:33:06.465Z,100614.88
2023-08-17T11:34:09.418Z,100608.78
2023-08-17T11:35:12.903Z,100607.75
2023-08-17T11:36:15.978Z,100609.25
2023-08-17T11:37:19.021Z,100612.44
2023-08-17T11:38:22.058Z,100613.25
2023-08-17T11:39:25.077Z,100605.56
2023-08-17T11:40:28.301Z,100607.34
2023-08-17T11:41:31.236Z,100601.94
2023-08-17T11:42:34.119Z,100611.09
2023-08-17T11:43:37.102Z,100613.91
2023-08-17T11:44:40.068Z,100609.84
2023-08-17T11:45:43.372Z,100617.91
2023-08-17T11:46:46.815Z,100607.09
2023-08-17T11:47:50.544Z,100614.94
2023-08-17T11:48:55.736Z,100613.19
2023-08-17T11:50:14.619Z,100615.22
2023-08-17T11:51:32.503Z,100615.53
2023-08-17T11:52:35.573Z,100618.03
2023-08-17T11:53:40.867Z,100618.31
2023-08-17T11:54:44.406Z,100615.41
2023-08-17T11:55:47.342Z,100613.59
2023-08-17T11:56:50.297Z,100618.28
2023-08-17T11:57:53.376Z,100614.56
2023-08-17T11:58:56.403Z,100613.75
2023-08-17T11:59:59.940Z,100614.56
2023-08-17T12:01:02.958Z,100615.66
2023-08-17T12:02:05.925Z,100615.22
2023-08-17T12:03:09.591Z,100607.56
2023-08-17T12:04:12.846Z,100613.47
2023-08-17T12:05:15.908Z,100612.91
2023-08-17T12:06:18.917Z,100613.09
2023-08-17T12:07:23.456Z,100622.72
2023-08-17T12:08:26.309Z,100617.09
2023-08-17T12:09:29.416Z,100612.53
2023-08-17T12:10:35.645Z,100614.63
2023-08-17T12:11:41.824Z,100612.63
2023-08-17T12:12:44.812Z,100615.38
2023-08-17T12:13:54.684Z,100608.50
2023-08-17T12:14:59.109Z,100619.56
2023-08-17T12:16:02.106Z,100618.81
2023-08-17T12:17:05.233Z,100614.22
2023-08-17T12:18:08.403Z,100609.59